Time,TemperatureF,DewpointF,PressureIn,WindDirection,WindDirectionDegrees,WindSpeedMPH,WindSpeedGustMPH,Humidity,HourlyPrecipIn,Conditions,Clouds,dailyrainin,SolarRadiationWatts/m^2,SoftwareType,DateUTC
2013-01-31 05:31:00,34.0,32.0,-100.00,South,177,3.0,4.0,92,0.00,,,0.00,0.000000,,2013-01-31 13:31:00,
2013-01-31 06:02:00,34.0,32.0,-100.00,South,177,3.0,4.0,92,0.00,,,0.00,0.000000,,2013-01-31 14:02:00,
2013-01-31 06:11:00,34.0,32.0,-100.00,South,177,3.0,4.0,92,0.00,,,0.00,0.000000,,2013-01-31 14:11:00,
2013-01-31 06:21:00,34.0,32.0,-100.00,South,177,3.0,4.0,92,0.00,,,0.00,0.000000,,2013-01-31 14:21:00,
2013-01-31 06:31:00,33.0,31.0,-100.00,SSW,212,2.0,4.0,94,0.00,,,0.00,0.000000,,2013-01-31 14:31:00,
2013-01-31 06:52:00,33.0,31.0,-100.00,SSW,212,2.0,4.0,94,0.00,,,0.00,0.000000,,2013-01-31 14:52:00,
2013-01-31 07:03:00,33.0,31.0,-100.00,SSW,212,2.0,4.0,94,0.00,,,0.00,0.000000,,2013-01-31 15:03:00,
2013-01-31 07:12:00,33.0,31.0,-100.00,SSW,212,2.0,4.0,94,0.00,,,0.00,0.000000,,2013-01-31 15:12:00,
2013-01-31 07:22:00,33.0,31.0,-100.00,SSW,212,2.0,4.0,94,0.00,,,0.00,0.000000,,2013-01-31 15:22:00,
2013-01-31 07:31:00,33.0,31.0,-100.00,SSE,151,1.0,5.0,94,0.00,,,0.00,2.000000,,2013-01-31 15:31:00,
2013-01-31 07:52:00,33.0,31.0,-100.00,SSE,151,1.0,5.0,94,0.00,,,0.00,2.000000,,2013-01-31 15:52:00,
2013-01-31 08:03:00,33.0,31.0,-100.00,SSE,151,1.0,5.0,94,0.00,,,0.00,2.000000,,2013-01-31 16:03:00,
2013-01-31 08:12:00,33.0,31.0,-100.00,SSE,151,1.0,5.0,94,0.00,,,0.00,2.000000,,2013-01-31 16:12:00,
2013-01-31 08:21:00,33.0,31.0,-100.00,SSE,151,1.0,5.0,94,0.00,,,0.00,2.000000,,2013-01-31 16:21:00,
2013-01-31 08:31:00,34.0,32.0,-100.00,South,178,3.0,4.0,94,0.00,,,0.00,44.000000,,2013-01-31 16:31:00,
2013-01-31 08:52:00,34.0,32.0,-100.00,South,178,3.0,4.0,94,0.00,,,0.00,44.000000,,2013-01-31 16:52:00,
2013-01-31 09:02:00,34.0,32.0,-100.00,South,178,3.0,4.0,94,0.00,,,0.00,44.000000,,2013-01-31 17:02:00,
2013-01-31 09:12:00,34.0,32.0,-100.00,South,178,3.0,4.0,94,0.00,,,0.00,44.000000,,2013-01-31 17:12:00,
2013-01-31 09:22:00,34.0,32.0,-100.00,South,178,3.0,4.0,94,0.00,,,0.00,44.000000,,2013-01-31 17:22:00,
2013-01-31 09:53:00,40.0,37.0,-100.00,South,189,1.0,4.0,88,0.00,,,0.00,144.000000,,2013-01-31 17:53:00,
2013-01-31 10:02:00,40.0,37.0,-100.00,South,189,1.0,4.0,88,0.00,,,0.00,144.000000,,2013-01-31 18:02:00,
2013-01-31 10:52:00,44.0,36.0,-100.00,ESE,121,2.0,5.0,73,0.00,,,0.00,297.000000,,2013-01-31 18:52:00,
2013-01-31 11:02:00,44.0,36.0,-100.00,ESE,121,2.0,5.0,73,0.00,,,0.00,297.000000,,2013-01-31 19:02:00,
2013-01-31 11:31:00,47.0,35.0,-100.00,NNE,29,3.0,5.0,63,-99.99,,,0.00,458.000000,,2013-01-31 19:31:00,
2013-01-31 11:52:00,47.0,35.0,-100.00,NNE,29,3.0,5.0,63,-99.99,,,0.00,458.000000,,2013-01-31 19:52:00,
2013-01-31 12:02:00,47.0,35.0,-100.00,NNE,29,3.0,5.0,63,-99.99,,,0.00,458.000000,,2013-01-31 20:02:00,
2013-01-31 12:21:00,47.0,35.0,-100.00,NNE,29,3.0,5.0,63,-99.99,,,0.00,458.000000,,2013-01-31 20:21:00,
2013-01-31 12:31:00,49.0,35.0,-100.00,NNE,31,3.0,5.0,59,0.00,,,0.00,488.000000,,2013-01-31 20:31:00,
2013-01-31 12:52:00,49.0,35.0,-100.00,NNE,31,3.0,5.0,59,0.00,,,0.00,488.000000,,2013-01-31 20:52:00,
2013-01-31 13:02:00,49.0,35.0,-100.00,NNE,31,3.0,5.0,59,0.00,,,0.00,488.000000,,2013-01-31 21:02:00,
2013-01-31 13:21:00,49.0,35.0,-100.00,NNE,31,3.0,5.0,59,0.00,,,0.00,488.000000,,2013-01-31 21:21:00,
2013-01-31 13:52:00,51.0,36.0,-100.00,SSW,207,3.0,6.0,56,0.00,,,0.00,403.000000,,2013-01-31 21:52:00,
2013-01-31 14:02:00,51.0,36.0,-100.00,SSW,207,3.0,6.0,56,0.00,,,0.00,403.000000,,2013-01-31 22:02:00,
2013-01-31 14:31:00,50.0,32.0,-100.00,ENE,58,2.0,9.0,50,-99.99,,,0.00,448.000000,,2013-01-31 22:31:00,
2013-01-31 14:52:00,50.0,32.0,-100.00,ENE,58,2.0,9.0,50,-99.99,,,0.00,448.000000,,2013-01-31 22:52:00,
2013-01-31 15:02:00,50.0,32.0,-100.00,ENE,58,2.0,9.0,50,-99.99,,,0.00,448.000000,,2013-01-31 23:02:00,
2013-01-31 15:12:00,50.0,32.0,-100.00,ENE,58,2.0,9.0,50,-99.99,,,0.00,448.000000,,2013-01-31 23:12:00,
2013-01-31 15:21:00,50.0,32.0,-100.00,ENE,58,2.0,9.0,50,-99.99,,,0.00,448.000000,,2013-01-31 23:21:00,
2013-01-31 15:31:00,49.0,33.0,-100.00,WNW,303,2.0,4.0,54,0.00,,,0.00,188.000000,,2013-01-31 23:31:00,
2013-01-31 15:52:00,49.0,33.0,-100.00,WNW,303,2.0,4.0,54,0.00,,,0.00,188.000000,,2013-01-31 23:52:00,
2013-01-31 16:01:00,49.0,33.0,-100.00,WNW,303,2.0,4.0,54,0.00,,,0.00,188.000000,,2013-02-01 00:01:00,
2013-01-31 16:11:00,49.0,33.0,-100.00,WNW,303,2.0,4.0,54,0.00,,,0.00,188.000000,,2013-02-01 00:11:00,
2013-01-31 16:21:00,49.0,33.0,-100.00,WNW,303,2.0,4.0,54,0.00,,,0.00,188.000000,,2013-02-01 00:21:00,
2013-01-31 16:31:00,47.0,30.0,-100.00,NNW,344,1.0,5.0,51,0.00,,,0.00,108.000000,,2013-02-01 00:31:00,
2013-01-31 16:52:00,47.0,30.0,-100.00,NNW,344,1.0,5.0,51,0.00,,,0.00,108.000000,,2013-02-01 00:52:00,
2013-01-31 17:01:00,47.0,30.0,-100.00,NNW,344,1.0,5.0,51,0.00,,,0.00,108.000000,,2013-02-01 01:01:00,
2013-01-31 17:11:00,47.0,30.0,-100.00,NNW,344,1.0,5.0,51,0.00,,,0.00,108.000000,,2013-02-01 01:11:00,
2013-01-31 17:21:00,47.0,30.0,-100.00,NNW,344,1.0,5.0,51,0.00,,,0.00,108.000000,,2013-02-01 01:21:00,
2013-01-31 17:31:00,42.0,30.0,-100.00,SW,229,2.0,5.0,61,0.00,,,0.00,23.000000,,2013-02-01 01:31:00,
2013-01-31 17:52:00,42.0,30.0,-100.00,SW,229,2.0,5.0,61,0.00,,,0.00,23.000000,,2013-02-01 01:52:00,
2013-01-31 18:01:00,42.0,30.0,-100.00,SW,229,2.0,5.0,61,0.00,,,0.00,23.000000,,2013-02-01 02:01:00,
2013-01-31 18:11:00,42.0,30.0,-100.00,SW,229,2.0,5.0,61,0.00,,,0.00,23.000000,,2013-02-01 02:11:00,
2013-01-31 18:21:00,42.0,30.0,-100.00,SW,229,2.0,5.0,61,0.00,,,0.00,23.000000,,2013-02-01 02:21:00,
2013-01-31 18:31:00,41.0,32.0,-100.00,SSE,167,2.0,4.0,69,0.00,,,0.00,0.000000,,2013-02-01 02:31:00,
2013-01-31 18:52:00,41.0,32.0,-100.00,SSE,167,2.0,4.0,69,0.00,,,0.00,0.000000,,2013-02-01 02:52:00,
2013-01-31 19:01:00,41.0,32.0,-100.00,SSE,167,2.0,4.0,69,0.00,,,0.00,0.000000,,2013-02-01 03:01:00,
2013-01-31 19:11:00,41.0,32.0,-100.00,SSE,167,2.0,4.0,69,0.00,,,0.00,0.000000,,2013-02-01 03:11:00,
2013-01-31 19:21:00,41.0,32.0,-100.00,SSE,167,2.0,4.0,69,0.00,,,0.00,0.000000,,2013-02-01 03:21:00,
2013-01-31 19:31:00,39.0,32.0,-100.00,SSW,205,2.0,4.0,77,0.00,,,0.00,0.000000,,2013-02-01 03:31:00,
2013-01-31 19:52:00,39.0,32.0,-100.00,SSW,205,2.0,4.0,77,0.00,,,0.00,0.000000,,2013-02-01 03:52:00,
2013-01-31 20:02:00,39.0,32.0,-100.00,SSW,205,2.0,4.0,77,0.00,,,0.00,0.000000,,2013-02-01 04:02:00,
2013-01-31 20:11:00,39.0,32.0,-100.00,SSW,205,2.0,4.0,77,0.00,,,0.00,0.000000,,2013-02-01 04:11:00,
2013-01-31 20:21:00,39.0,32.0,-100.00,SSW,205,2.0,4.0,77,0.00,,,0.00,0.000000,,2013-02-01 04:21:00,
2013-01-31 20:31:00,36.0,30.0,-100.00,SSW,211,3.0,4.0,79,0.00,,,0.00,0.000000,,2013-02-01 04:31:00,
2013-01-31 20:52:00,36.0,30.0,-100.00,SSW,211,3.0,4.0,79,0.00,,,0.00,0.000000,,2013-02-01 04:52:00,
2013-01-31 21:03:00,36.0,30.0,-100.00,SSW,211,3.0,4.0,79,0.00,,,0.00,0.000000,,2013-02-01 05:03:00,
2013-01-31 21:11:00,36.0,30.0,-100.00,SSW,211,3.0,4.0,79,0.00,,,0.00,0.000000,,2013-02-01 05:11:00,
2013-01-31 21:22:00,36.0,30.0,-100.00,SSW,211,3.0,4.0,79,0.00,,,0.00,0.000000,,2013-02-01 05:22:00,
2013-01-31 21:31:00,36.0,32.0,-100.00,South,190,1.0,4.0,85,0.00,,,0.00,0.000000,,2013-02-01 05:31:00,
2013-01-31 21:52:00,36.0,32.0,-100.00,South,190,1.0,4.0,85,0.00,,,0.00,0.000000,,2013-02-01 05:52:00,
2013-01-31 22:02:00,36.0,32.0,-100.00,South,190,1.0,4.0,85,0.00,,,0.00,0.000000,,2013-02-01 06:02:00,
2013-01-31 22:11:00,36.0,32.0,-100.00,South,190,1.0,4.0,85,0.00,,,0.00,0.000000,,2013-02-01 06:11:00,
2013-01-31 22:21:00,36.0,32.0,-100.00,South,190,1.0,4.0,85,0.00,,,0.00,0.000000,,2013-02-01 06:21:00,
2013-01-31 22:31:00,36.0,33.0,-100.00,SW,225,1.0,5.0,87,0.00,,,0.00,0.000000,,2013-02-01 06:31:00,
2013-01-31 22:52:00,36.0,33.0,-100.00,SW,225,1.0,5.0,87,0.00,,,0.00,0.000000,,2013-02-01 06:52:00,
2013-01-31 23:01:00,36.0,33.0,-100.00,SW,225,1.0,5.0,87,0.00,,,0.00,0.000000,,2013-02-01 07:01:00,
2013-01-31 23:12:00,36.0,33.0,-100.00,SW,225,1.0,5.0,87,0.00,,,0.00,0.000000,,2013-02-01 07:12:00,
2013-01-31 23:21:00,36.0,33.0,-100.00,SW,225,1.0,5.0,87,0.00,,,0.00,0.000000,,2013-02-01 07:21:00,
2013-01-31 23:31:00,35.0,32.0,-100.00,WSW,241,2.0,4.0,90,0.00,,,0.00,0.000000,,2013-02-01 07:31:00,
2013-01-31 23:52:00,35.0,32.0,-100.00,WSW,241,2.0,4.0,90,0.00,,,0.00,0.000000,,2013-02-01 07:52:00,